Air Navigation Services of Czech Republic
Airport: LKLN Updated:  22.06.2017 23:42:07  UTC
 SPECI LKLN 22.06. 23:38 ...
SPECI LKLN 222338Z AUTO VRB07KT 9999 -RA FEW006 SCT031 OVC047 17/16 Q1014 RERA=
 SPECI LKLN 22.06. 23:21 ...
SPECI LKLN 222321Z AUTO VRB06G16KT 3600 RA FEW012 BKN031 OVC076 18/16 Q1014=
 SPECI LKLN 22.06. 23:04 ...
SPECI LKLN 222304Z AUTO 34009G21KT 260V060 9999 -RA SCT011 BKN077 BKN160 18/16 Q1013=
 METAR LKLN 22.06. 23:00 ...
METAR LKLN 222300Z AUTO 26003KT 220V330 9999 SCT078 BKN160 18/16 Q1012=